Strona główna
METAR-TAF:

METAR-TAF

Lotnisko :

Port lotniczy Saint-Étienne

Saint-Étienne, Francja

Szerokość geograficzna: 45-32N, Długość geograficzna: 004-18E, wysokość: 404 m

Aktualna obserwacja pogody

Raport powstał 21 minut temu, godzina 19:00 UTC
Wiatr 7 kt od południe
Temperatura 22°C
Wilgotność 73%
Ciśnienie 1011 hPa
Widzialność 10 km lub więcej
burza w pobliże,

METAR: LFMH 251900Z AUTO 18007KT 9999 VCTS BKN048/// BKN086/// OVC110/// //////CB 22/17 Q1011

czas: 21:21 (19:21 UTC)


TAF: brakujący

Obserwacja i prognoza pogody dla ponad 4000 lotnisk (raport METAR i TAF).

Dostępne stacje oznaczono żółtymi i czerwonymi punktami na mapie.

Najedź kursorem aby zobaczyć nazwę stacji.

Kliknij aby zobaczyć obserwacje i prognozy pogody.

Aby zmienić mapę: kliknij na zielony przycisk z czarnym krzyżykiem, aby powiększyć; na zielony przycisk z myślnikiem, aby pomniejszyć; na zielone strzałki, aby przejść do map sąsiednich.


METAR-TAF: